createdAt,value
2023-03-23T16:00:28.079Z,50.84
2023-03-23T16:05:29.708Z,51.27
2023-03-23T16:10:31.026Z,51.10
2023-03-23T16:15:32.558Z,51.97
2023-03-23T16:20:36.253Z,51.74
2023-03-23T16:25:40.212Z,51.98
2023-03-23T16:30:43.313Z,53.17
2023-03-23T16:35:45.030Z,53.15
2023-03-23T16:40:47.182Z,53.97
2023-03-23T16:45:49.255Z,54.45
2023-03-23T16:50:51.945Z,54.84
2023-03-23T16:55:53.414Z,56.01
2023-03-23T17:01:01.033Z,56.92
2023-03-23T17:06:02.586Z,57.41
2023-03-23T17:11:04.080Z,57.62
2023-03-23T17:16:06.116Z,58.26
2023-03-23T17:21:07.621Z,58.77
2023-03-23T17:26:08.958Z,58.66
2023-03-23T17:31:10.520Z,59.37
2023-03-23T17:36:11.949Z,59.69
2023-03-23T17:41:13.350Z,59.86
2023-03-23T17:46:15.331Z,59.91
2023-03-23T17:51:16.669Z,60.21
2023-03-23T17:56:18.110Z,60.11
2023-03-23T18:01:19.531Z,60.10
2023-03-23T18:06:25.859Z,59.94
2023-03-23T18:11:31.576Z,59.85
2023-03-23T18:16:37.662Z,59.86
2023-03-23T18:22:04.467Z,60.00
2023-03-23T18:27:05.823Z,60.05
2023-03-23T18:32:08.089Z,59.76
2023-03-23T18:37:10.818Z,59.54
2023-03-23T18:42:12.147Z,59.52
2023-03-23T18:47:13.511Z,59.31
2023-03-23T18:52:14.858Z,59.85
2023-03-23T18:57:17.888Z,59.63
2023-03-23T19:02:20.376Z,59.91
2023-03-23T19:07:21.762Z,59.88
2023-03-23T19:12:38.060Z,59.95
2023-03-23T19:17:39.546Z,59.62
2023-03-23T19:22:41.191Z,59.68
2023-03-23T19:28:14.693Z,60.28
2023-03-23T19:33:04.711Z,60.07
2023-03-23T19:38:06.899Z,60.27
2023-03-23T19:43:08.418Z,60.12
2023-03-23T19:48:10.203Z,60.33
2023-03-23T19:53:14.026Z,59.99
2023-03-23T19:58:16.309Z,60.09
2023-03-23T20:03:18.350Z,60.28
2023-03-23T20:08:19.725Z,59.93
2023-03-23T20:13:21.066Z,59.92
2023-03-23T20:18:22.624Z,60.18
2023-03-23T20:23:25.185Z,60.18
2023-03-23T20:28:26.776Z,59.83
2023-03-23T20:33:30.352Z,59.97
2023-03-23T20:38:35.214Z,59.80
2023-03-23T20:43:37.663Z,59.89
2023-03-23T20:48:40.127Z,60.18
2023-03-23T20:53:41.619Z,59.77
2023-03-23T20:58:43.450Z,60.28
2023-03-23T21:03:45.494Z,60.13
2023-03-23T21:08:47.029Z,59.91
2023-03-23T21:13:49.182Z,60.22
2023-03-23T21:18:51.167Z,60.39
2023-03-23T21:23:53.820Z,60.36
2023-03-23T21:29:00.897Z,60.44
2023-03-23T21:34:02.567Z,60.30
2023-03-23T21:39:05.967Z,60.47
2023-03-23T21:44:10.572Z,60.67
2023-03-23T21:49:19.065Z,60.96
2023-03-23T21:54:21.571Z,60.76
2023-03-23T21:59:23.826Z,61.33
2023-03-23T22:04:25.351Z,61.23
2023-03-23T22:09:26.689Z,61.38
2023-03-23T22:14:28.499Z,61.55
2023-03-23T22:19:29.853Z,61.86
2023-03-23T22:24:31.925Z,61.65
2023-03-23T22:29:34.943Z,61.58
2023-03-23T22:34:37.758Z,61.86
2023-03-23T22:39:39.305Z,61.57
2023-03-23T22:44:50.573Z,61.95
2023-03-23T22:49:53.096Z,62.16
2023-03-23T22:54:54.584Z,62.40
2023-03-23T22:59:56.789Z,62.56
2023-03-23T23:04:59.086Z,62.77
2023-03-23T23:10:00.619Z,63.84
2023-03-23T23:15:06.730Z,64.70
2023-03-23T23:20:12.841Z,64.58
2023-03-23T23:25:16.217Z,65.30
2023-03-23T23:30:18.643Z,66.45
2023-03-23T23:35:21.236Z,67.79
2023-03-23T23:40:22.953Z,68.22
2023-03-23T23:45:24.396Z,68.71
2023-03-23T23:50:26.434Z,69.47
2023-03-23T23:55:27.841Z,69.75
